Klickitat, WA

11:12 AM PST on December 03, 2016 (GMT -0800)
High Prairie Point | | Change Station

Elev 1506 ft 45.73 °N, 121.22 °W | Updated 7 minutes ago

Overcast
Overcast
43.9 °F
Feels Like 40 °F
N
6.0
Wind Variable Wind from WSW
Gusts 20.0 mph

Today
High -- | Low -- °F
--% Chance of Precip.
Yesterday
High -- | Low -- °F
Precip. -- in
Pressure 30.31 in
Visibility 10.0 miles
Clouds Mostly Cloudy 4500 ft
Overcast 5500 ft
Windchill 40 °F
Dew Point 38 °F
Humidity 80%
Rainfall 0.00 in
Snow Depth Not available.
7:28 AM 4:20 PM
Waxing Crescent, 16% visible
METAR KDLS 031853Z AUTO 32015KT 10SM -RA BKN045 OVC055 11/04 A3030 RMK AO2 RAB42 SLP262 P0000 T01060039
Pressure 30.31 in
Visibility 10.0 miles
Clouds Mostly Cloudy 4500 ft
Overcast 5500 ft
Windchill 40 °F
Dew Point 38 °F
Humidity 80%
Rainfall 0.00 in
Snow Depth Not available.
7:28 AM 4:20 PM
Waxing Crescent, 16% visible
METAR KDLS 031853Z AUTO 32015KT 10SM -RA BKN045 OVC055 11/04 A3030 RMK AO2 RAB42 SLP262 P0000 T01060039

10-Day Weather Forecast

Almanac

Astronomy

Dec. 03, 2016 Rise Set
Actual Time
Civil Twilight
Nautical Twilight
Astronomical Twilight
Moon
Length of Visible Light
Length of Day
Tomorrow will be .
, % of the Moon is Illuminated

Today's Extremes

State Highs State Lows

Community

WunderPhotos

Upload Photos

1,955,472 photos uploaded!

WunderBlog® & News

Nearby

Air Quality

  Air Quality AQ Index Pollutant
Not available.

Snow Depth

Station Depth Elevation

Earthquake Activity

City Distance Mag. Time & Date
Minimum magnitude displayed is 2.5.

Coastal Water Temperatures

Place Temperature

Stations

Nearby Weather Stations

Station Location Temp. Windchill Dew Point Humidity Wind Precip. Elev Updated Type
                   

Watches & Warnings

There are currently no watches in effect.